aviador You're here:

BKPR Decoded Metar

PRISHTINA in SERBIA
Report Time2017-07-25 20:30:00
UTC Time2017-07-25 20:37:34
Flight Rules vfr VFR
Wind310° at 04 kt
W.Decomp.*RWY 35: 3.0 kt HW 2.7 kt LCW
W.Rank310° ranks 16
Current wind is below 310° avg. (5.6)
Visibility9999 m
Phenomena:N/A
Clouds:Few 080 Hf
Expected CloudBase > 2,000 ft AGL from Temp-Dew spread
CeilingNone
Temp18°C (ISA +7)
Dew Point13°C (73% RH)
AAT17.5°C
QNH1007 hPa
Density Alt3,091 ft
Elevation1,890 ft
Report Wrong Elevation
Raw Report
BKPR 252030Z 31004KT 240V030 9999 FEW080 18/13 Q1007 NOSIG=

Extra information for BKPR:More info

Metar Taf Metar & Taf Last 4 Metars F.Rules Stats Wind Profile Meteogram Temp Stats Airport Information Weather charts Add Link Nearby VenuesMetar ALERT Operation Metar Decoded Social comments